Flight Track Log - Related Links

Times and Time Zones

All times are in EDT time to prevent confusion due to time zone crossing. See the GGN7486 flight status page for this flight to view local times or setup timezone preferences in your user account.

Time Position Orientation Groundspeed Altitude Reporting Facility
EDT Latitude Longitude Course Direction KTS MPH feet Rate Location/Type
Tue 02:09:11 PM 45.2667 -65.9167 105° East 110 127 2,300  Level Moncton Center
Tue 02:14:11 PM 45.2000 -65.5667 106° East 210 242 10,000 1,483 Climbing Moncton Center
Tue 02:15:11 PM 45.1833 -65.4833 90° East 230 265 11,200 1,250 Climbing Moncton Center
Tue 02:16:11 PM 45.1833 -65.4000 103° East 230 265 12,500 900 Climbing Moncton Center
Tue 02:17:11 PM 45.1667 -65.3000 101° East 250 288 13,000 400 Climbing Moncton Center
Tue 02:18:11 PM 45.1500 -65.1833 103° East 270 311 13,300 950 Climbing Moncton Center
Tue 02:19:11 PM 45.1333 -65.0833 103° East 250 288 14,900 850 Climbing Moncton Center
Tue 02:20:11 PM 45.1167 -64.9833 90° East 250 288 15,000 50 Climbing Moncton Center
Tue 02:21:11 PM 45.1167 -64.9000 101° East 270 311 15,000  Level Moncton Center
Tue 02:22:11 PM 45.1000 -64.7833 103° East 270 311 15,000  Level Moncton Center
Tue 02:23:11 PM 45.0833 -64.6833 102° East 270 311 15,000  Level Moncton Center
Tue 02:25:11 PM 45.0500 -64.4667 101° East 270 311 15,000  Level Moncton Center
Tue 02:26:11 PM 45.0333 -64.3500 103° East 270 311 15,000 -250 Level Moncton Center
Tue 02:27:11 PM 45.0167 -64.2500 101° East 280 322 14,500 -1,050 Descending Moncton Center
Tue 02:28:11 PM 45.0000 -64.1333 90° East 300 345 12,900 -1,850 Descending Moncton Center
Tue 02:29:11 PM 45.0000 -64.0167 101° East 310 357 10,800 -2,200 Descending Moncton Center
Tue 02:30:11 PM 44.9833 -63.9000 90° East 290 334 8,500 -2,250 Descending Moncton Center
Tue 02:31:11 PM 44.9833 -63.8000 101° East 280 322 6,300 -2,050 Descending Moncton Center
Tue 02:32:11 PM 44.9667 -63.6833 90° East 260 299 4,400 -1,600 Descending Moncton Center
Tue 02:33:11 PM 44.9667 -63.6000 106° East 250 288 3,100 -1,100 Descending Moncton Center
Tue 02:34:11 PM 44.9500 -63.5167 109° East 220 253 2,200 -700 Descending Moncton Center
Tue 02:35:11 PM 44.9333 -63.4500 215° Southwest 190 219 1,700 -600 Descending Moncton Center
Tue 02:36:11 PM 44.9000 -63.4833 200° South 140 161 1,000 -650 Descending Moncton Center
Tue 02:37:11 PM 44.8667 -63.5000 360° North 110 127 400 -300 Descending Moncton Center
Tue 02:38:11 PM 44.8667 -63.5000 360° North 80 92 400  Level Moncton Center

Login

Don't have an account? Register now (free) for customized features, flight alerts, and more!